Forside
METAR-TAF:

METAR-TAF

Lufthavne :

Munising, Michigan, USA

Breddekreds: 46-24N, længdekreds: 086-39W, højde: 187 m

Aktuelle vejr

Denne rapport blev lavet for 1 time og 12 minutter siden, kl. 02:56 UTC
Vind 9 kt fra syd med vindstød på up til 17 kt
Temperatur -6°C
Fugtighed 79%
Tryk 1029 hPa

METAR: KP53 180256Z AUTO 17009G17KT M06/M09 A3040 RMK AO1 SLP308 T10561094 58046

Tid: 23:08 (04:08 UTC)


TAF: fraværende

Vejrobservationer og prognoser fra mere end 4000 lufthavne (METAR og TAF).

De gule og røde prikker repræsenterer de meteorologiske stationer.

Flyt musen over at se navnet på stationen.

Så klik over at se vejr observationer og prognoser.

At skifte det kort: Klik på de grønne knapper med et sort kors for at zoome ind; på den grønne knap med en bindestreg for at zoome ud; eller på de grønne pile for tilstødende kort.


METAR-TAF: